sensor_id;sensor_type;location;lat;lon;timestamp;temperature;humidity
1455;DHT22;721;48.168;12.818;2023-06-19T00:01:42;19.70;1.00
1455;DHT22;721;48.168;12.818;2023-06-19T00:04:10;19.80;1.00
1455;DHT22;721;48.168;12.818;2023-06-19T00:06:36;19.80;1.00
1455;DHT22;721;48.168;12.818;2023-06-19T00:09:06;19.80;1.00
1455;DHT22;721;48.168;12.818;2023-06-19T00:11:33;19.80;1.00
1455;DHT22;721;48.168;12.818;2023-06-19T00:14:00;19.80;1.00
1455;DHT22;721;48.168;12.818;2023-06-19T00:16:27;19.80;1.00
1455;DHT22;721;48.168;12.818;2023-06-19T00:18:54;19.60;1.00
1455;DHT22;721;48.168;12.818;2023-06-19T00:21:22;19.70;1.00
1455;DHT22;721;48.168;12.818;2023-06-19T00:23:50;19.70;1.00
1455;DHT22;721;48.168;12.818;2023-06-19T00:26:18;19.80;1.00
1455;DHT22;721;48.168;12.818;2023-06-19T00:28:48;19.80;1.00
1455;DHT22;721;48.168;12.818;2023-06-19T00:31:15;19.80;1.00
1455;DHT22;721;48.168;12.818;2023-06-19T00:33:42;19.80;1.00
1455;DHT22;721;48.168;12.818;2023-06-19T00:36:09;19.80;1.00
1455;DHT22;721;48.168;12.818;2023-06-19T00:38:37;19.80;1.00
1455;DHT22;721;48.168;12.818;2023-06-19T00:41:04;19.60;1.00
1455;DHT22;721;48.168;12.818;2023-06-19T00:43:33;19.60;1.00
1455;DHT22;721;48.168;12.818;2023-06-19T00:46:01;19.70;1.00
1455;DHT22;721;48.168;12.818;2023-06-19T00:48:29;19.70;1.00
1455;DHT22;721;48.168;12.818;2023-06-19T00:50:57;19.70;1.00
1455;DHT22;721;48.168;12.818;2023-06-19T00:53:24;19.60;1.00
1455;DHT22;721;48.168;12.818;2023-06-19T00:55:53;19.60;1.00
1455;DHT22;721;48.168;12.818;2023-06-19T00:58:20;19.60;1.00
1455;DHT22;721;48.168;12.818;2023-06-19T01:00:49;19.40;1.00
1455;DHT22;721;48.168;12.818;2023-06-19T01:03:16;19.20;1.00
1455;DHT22;721;48.168;12.818;2023-06-19T01:05:43;19.20;1.00
1455;DHT22;721;48.168;12.818;2023-06-19T01:08:22;19.20;1.00
1455;DHT22;721;48.168;12.818;2023-06-19T01:10:55;19.20;1.00
1455;DHT22;721;48.168;12.818;2023-06-19T01:13:28;19.00;1.00
1455;DHT22;721;48.168;12.818;2023-06-19T01:15:59;18.80;2.60
1455;DHT22;721;48.168;12.818;2023-06-19T01:18:27;18.80;2.00
1455;DHT22;721;48.168;12.818;2023-06-19T01:20:54;18.80;3.10
1455;DHT22;721;48.168;12.818;2023-06-19T01:23:22;18.70;2.60
1455;DHT22;721;48.168;12.818;2023-06-19T01:25:49;18.70;2.70
1455;DHT22;721;48.168;12.818;2023-06-19T01:28:16;18.70;2.70
1455;DHT22;721;48.168;12.818;2023-06-19T01:30:43;18.60;3.60
1455;DHT22;721;48.168;12.818;2023-06-19T01:33:16;18.40;6.20
1455;DHT22;721;48.168;12.818;2023-06-19T01:35:46;18.40;3.50
1455;DHT22;721;48.168;12.818;2023-06-19T01:38:14;18.50;2.40
1455;DHT22;721;48.168;12.818;2023-06-19T01:40:44;18.60;2.90
1455;DHT22;721;48.168;12.818;2023-06-19T01:43:12;18.50;2.20
1455;DHT22;721;48.168;12.818;2023-06-19T01:45:39;18.60;3.10
1455;DHT22;721;48.168;12.818;2023-06-19T01:48:07;18.60;2.70
1455;DHT22;721;48.168;12.818;2023-06-19T01:50:34;18.60;2.50
1455;DHT22;721;48.168;12.818;2023-06-19T01:53:01;18.50;4.50
1455;DHT22;721;48.168;12.818;2023-06-19T01:55:28;18.50;3.40
1455;DHT22;721;48.168;12.818;2023-06-19T01:57:56;18.50;3.30
1455;DHT22;721;48.168;12.818;2023-06-19T02:00:23;18.50;4.00
1455;DHT22;721;48.168;12.818;2023-06-19T02:02:50;18.50;4.90
1455;DHT22;721;48.168;12.818;2023-06-19T02:05:17;18.30;6.60
1455;DHT22;721;48.168;12.818;2023-06-19T02:07:44;18.20;6.00
1455;DHT22;721;48.168;12.818;2023-06-19T02:10:11;18.30;5.60
1455;DHT22;721;48.168;12.818;2023-06-19T02:12:38;18.30;6.70
1455;DHT22;721;48.168;12.818;2023-06-19T02:15:07;18.20;7.60
1455;DHT22;721;48.168;12.818;2023-06-19T02:17:34;18.20;6.30
1455;DHT22;721;48.168;12.818;2023-06-19T02:20:02;18.30;6.00
1455;DHT22;721;48.168;12.818;2023-06-19T02:22:31;18.30;5.50
1455;DHT22;721;48.168;12.818;2023-06-19T02:24:58;18.30;6.80
1455;DHT22;721;48.168;12.818;2023-06-19T02:27:24;18.30;7.90
1455;DHT22;721;48.168;12.818;2023-06-19T02:29:51;18.30;7.50
1455;DHT22;721;48.168;12.818;2023-06-19T02:32:19;18.40;6.20
1455;DHT22;721;48.168;12.818;2023-06-19T02:34:46;18.40;6.00
1455;DHT22;721;48.168;12.818;2023-06-19T02:37:13;18.40;5.90
1455;DHT22;721;48.168;12.818;2023-06-19T02:39:40;18.40;4.70
1455;DHT22;721;48.168;12.818;2023-06-19T02:42:07;18.40;6.60
1455;DHT22;721;48.168;12.818;2023-06-19T02:44:34;18.50;5.30
1455;DHT22;721;48.168;12.818;2023-06-19T02:47:01;18.40;5.20
1455;DHT22;721;48.168;12.818;2023-06-19T02:49:29;18.40;4.40
1455;DHT22;721;48.168;12.818;2023-06-19T02:51:56;18.30;4.10
1455;DHT22;721;48.168;12.818;2023-06-19T02:54:23;18.30;4.60
1455;DHT22;721;48.168;12.818;2023-06-19T02:56:50;18.30;3.20
1455;DHT22;721;48.168;12.818;2023-06-19T02:59:17;18.30;2.30
1455;DHT22;721;48.168;12.818;2023-06-19T03:01:43;18.40;2.10
1455;DHT22;721;48.168;12.818;2023-06-19T03:04:10;18.50;2.30
1455;DHT22;721;48.168;12.818;2023-06-19T03:06:39;18.50;2.10
1455;DHT22;721;48.168;12.818;2023-06-19T03:09:06;18.50;1.70
1455;DHT22;721;48.168;12.818;2023-06-19T03:11:38;18.50;1.40
1455;DHT22;721;48.168;12.818;2023-06-19T03:14:05;18.60;1.00
1455;DHT22;721;48.168;12.818;2023-06-19T03:16:33;18.70;1.00
1455;DHT22;721;48.168;12.818;2023-06-19T03:19:00;18.70;1.00
1455;DHT22;721;48.168;12.818;2023-06-19T03:21:27;18.60;1.00
1455;DHT22;721;48.168;12.818;2023-06-19T03:23:55;18.60;1.00
1455;DHT22;721;48.168;12.818;2023-06-19T03:26:23;18.50;1.00
1455;DHT22;721;48.168;12.818;2023-06-19T03:28:50;18.50;1.00
1455;DHT22;721;48.168;12.818;2023-06-19T03:31:17;18.40;1.00
1455;DHT22;721;48.168;12.818;2023-06-19T03:33:44;18.50;1.00
1455;DHT22;721;48.168;12.818;2023-06-19T03:36:11;18.60;1.00
1455;DHT22;721;48.168;12.818;2023-06-19T03:38:38;18.60;1.00
1455;DHT22;721;48.168;12.818;2023-06-19T03:41:06;18.70;1.00
1455;DHT22;721;48.168;12.818;2023-06-19T03:43:33;18.70;1.00
1455;DHT22;721;48.168;12.818;2023-06-19T03:45:59;18.70;1.00
1455;DHT22;721;48.168;12.818;2023-06-19T03:48:27;18.70;1.00
1455;DHT22;721;48.168;12.818;2023-06-19T03:50:54;18.80;1.00
1455;DHT22;721;48.168;12.818;2023-06-19T03:53:20;18.80;1.00
1455;DHT22;721;48.168;12.818;2023-06-19T03:55:47;18.90;1.00
1455;DHT22;721;48.168;12.818;2023-06-19T03:58:16;18.90;1.00
1455;DHT22;721;48.168;12.818;2023-06-19T04:00:42;18.80;1.10
1455;DHT22;721;48.168;12.818;2023-06-19T04:03:09;18.70;1.40
1455;DHT22;721;48.168;12.818;2023-06-19T04:05:36;18.60;1.60
1455;DHT22;721;48.168;12.818;2023-06-19T04:08:04;18.60;1.60
1455;DHT22;721;48.168;12.818;2023-06-19T04:10:31;18.60;1.00
1455;DHT22;721;48.168;12.818;2023-06-19T04:12:58;18.60;1.00
1455;DHT22;721;48.168;12.818;2023-06-19T04:15:26;18.60;1.00
1455;DHT22;721;48.168;12.818;2023-06-19T04:17:53;18.60;1.00
1455;DHT22;721;48.168;12.818;2023-06-19T04:20:20;18.60;1.00
1455;DHT22;721;48.168;12.818;2023-06-19T04:22:47;18.70;1.00
1455;DHT22;721;48.168;12.818;2023-06-19T04:25:14;18.70;1.00
1455;DHT22;721;48.168;12.818;2023-06-19T04:27:40;18.70;1.00
1455;DHT22;721;48.168;12.818;2023-06-19T04:30:11;18.60;1.00
1455;DHT22;721;48.168;12.818;2023-06-19T04:32:39;18.70;1.00
1455;DHT22;721;48.168;12.818;2023-06-19T04:35:07;18.70;1.00
1455;DHT22;721;48.168;12.818;2023-06-19T04:37:34;18.60;1.00
1455;DHT22;721;48.168;12.818;2023-06-19T04:40:01;18.60;1.20
1455;DHT22;721;48.168;12.818;2023-06-19T04:42:28;18.60;1.60
1455;DHT22;721;48.168;12.818;2023-06-19T04:44:55;18.60;1.40
1455;DHT22;721;48.168;12.818;2023-06-19T04:47:25;18.60;1.50
1455;DHT22;721;48.168;12.818;2023-06-19T04:49:53;18.60;1.30
1455;DHT22;721;48.168;12.818;2023-06-19T04:52:20;18.70;1.80
1455;DHT22;721;48.168;12.818;2023-06-19T04:54:47;18.60;1.00
1455;DHT22;721;48.168;12.818;2023-06-19T04:57:14;18.80;1.50
1455;DHT22;721;48.168;12.818;2023-06-19T04:59:42;18.90;1.50
1455;DHT22;721;48.168;12.818;2023-06-19T05:02:09;19.00;1.60
1455;DHT22;721;48.168;12.818;2023-06-19T05:04:36;19.00;1.40
1455;DHT22;721;48.168;12.818;2023-06-19T05:07:05;19.10;1.80
1455;DHT22;721;48.168;12.818;2023-06-19T05:09:32;19.10;1.90
1455;DHT22;721;48.168;12.818;2023-06-19T05:11:59;19.10;2.00
1455;DHT22;721;48.168;12.818;2023-06-19T05:14:26;18.90;2.20
1455;DHT22;721;48.168;12.818;2023-06-19T05:16:53;18.80;2.80
1455;DHT22;721;48.168;12.818;2023-06-19T05:19:20;18.80;3.50
1455;DHT22;721;48.168;12.818;2023-06-19T05:21:47;18.80;3.60
1455;DHT22;721;48.168;12.818;2023-06-19T05:24:15;18.90;3.30
1455;DHT22;721;48.168;12.818;2023-06-19T05:26:42;19.00;2.50
1455;DHT22;721;48.168;12.818;2023-06-19T05:29:09;19.20;2.30
1455;DHT22;721;48.168;12.818;2023-06-19T05:31:36;19.30;2.40
1455;DHT22;721;48.168;12.818;2023-06-19T05:34:03;19.30;1.70
1455;DHT22;721;48.168;12.818;2023-06-19T05:36:30;19.30;2.00
1455;DHT22;721;48.168;12.818;2023-06-19T05:38:57;19.40;2.90
1455;DHT22;721;48.168;12.818;2023-06-19T05:41:25;19.40;1.00
1455;DHT22;721;48.168;12.818;2023-06-19T05:43:52;19.40;1.00
1455;DHT22;721;48.168;12.818;2023-06-19T05:46:19;19.40;1.00
1455;DHT22;721;48.168;12.818;2023-06-19T05:48:45;19.50;1.00
1455;DHT22;721;48.168;12.818;2023-06-19T05:51:12;19.50;1.00
1455;DHT22;721;48.168;12.818;2023-06-19T05:53:39;19.40;1.00
1455;DHT22;721;48.168;12.818;2023-06-19T05:56:06;19.50;1.90
1455;DHT22;721;48.168;12.818;2023-06-19T05:58:34;19.50;1.00
1455;DHT22;721;48.168;12.818;2023-06-19T06:01:01;19.60;1.00
1455;DHT22;721;48.168;12.818;2023-06-19T06:03:28;19.60;1.00
1455;DHT22;721;48.168;12.818;2023-06-19T06:05:56;19.60;1.00
1455;DHT22;721;48.168;12.818;2023-06-19T06:08:28;19.50;1.00
1455;DHT22;721;48.168;12.818;2023-06-19T06:10:55;19.60;2.10
1455;DHT22;721;48.168;12.818;2023-06-19T06:13:22;19.50;3.80
1455;DHT22;721;48.168;12.818;2023-06-19T06:15:50;19.50;3.80
1455;DHT22;721;48.168;12.818;2023-06-19T06:18:17;19.50;3.50
1455;DHT22;721;48.168;12.818;2023-06-19T06:20:44;19.40;4.30
1455;DHT22;721;48.168;12.818;2023-06-19T06:23:11;19.20;6.70
1455;DHT22;721;48.168;12.818;2023-06-19T06:25:38;19.00;7.90
1455;DHT22;721;48.168;12.818;2023-06-19T06:28:05;19.00;8.60
1455;DHT22;721;48.168;12.818;2023-06-19T06:30:32;19.00;8.80
1455;DHT22;721;48.168;12.818;2023-06-19T06:33:00;19.00;9.40
1455;DHT22;721;48.168;12.818;2023-06-19T06:35:27;19.00;8.80
1455;DHT22;721;48.168;12.818;2023-06-19T06:37:54;19.10;9.60
1455;DHT22;721;48.168;12.818;2023-06-19T06:40:21;19.30;9.90
1455;DHT22;721;48.168;12.818;2023-06-19T06:42:48;19.40;8.20
1455;DHT22;721;48.168;12.818;2023-06-19T06:45:15;19.50;9.00
1455;DHT22;721;48.168;12.818;2023-06-19T06:47:42;19.60;8.70
1455;DHT22;721;48.168;12.818;2023-06-19T06:50:10;19.60;5.90
1455;DHT22;721;48.168;12.818;2023-06-19T06:52:37;19.70;5.70
1455;DHT22;721;48.168;12.818;2023-06-19T06:55:05;19.80;3.80
1455;DHT22;721;48.168;12.818;2023-06-19T06:57:32;19.90;5.50
1455;DHT22;721;48.168;12.818;2023-06-19T06:59:59;20.00;3.50
1455;DHT22;721;48.168;12.818;2023-06-19T07:02:25;20.10;4.30
1455;DHT22;721;48.168;12.818;2023-06-19T07:04:52;20.30;5.30
1455;DHT22;721;48.168;12.818;2023-06-19T07:07:21;20.40;6.30
1455;DHT22;721;48.168;12.818;2023-06-19T07:09:47;20.40;5.70
1455;DHT22;721;48.168;12.818;2023-06-19T07:12:14;20.50;5.40
1455;DHT22;721;48.168;12.818;2023-06-19T07:14:41;20.50;3.80
1455;DHT22;721;48.168;12.818;2023-06-19T07:17:08;20.60;3.30
1455;DHT22;721;48.168;12.818;2023-06-19T07:19:35;20.50;3.00
1455;DHT22;721;48.168;12.818;2023-06-19T07:22:02;20.60;3.80
1455;DHT22;721;48.168;12.818;2023-06-19T07:24:30;20.60;6.30
1455;DHT22;721;48.168;12.818;2023-06-19T07:26:57;20.60;6.00
1455;DHT22;721;48.168;12.818;2023-06-19T07:29:24;20.60;5.10
1455;DHT22;721;48.168;12.818;2023-06-19T07:31:52;20.60;6.20
1455;DHT22;721;48.168;12.818;2023-06-19T07:34:19;20.70;6.90
1455;DHT22;721;48.168;12.818;2023-06-19T07:36:47;20.70;6.10
1455;DHT22;721;48.168;12.818;2023-06-19T07:39:13;20.70;3.90
1455;DHT22;721;48.168;12.818;2023-06-19T07:41:42;20.80;3.40
1455;DHT22;721;48.168;12.818;2023-06-19T07:44:10;20.70;4.10
1455;DHT22;721;48.168;12.818;2023-06-19T07:46:36;20.70;4.40
1455;DHT22;721;48.168;12.818;2023-06-19T07:49:03;20.80;2.00
1455;DHT22;721;48.168;12.818;2023-06-19T07:51:30;20.90;1.30
1455;DHT22;721;48.168;12.818;2023-06-19T07:53:57;20.90;1.30
1455;DHT22;721;48.168;12.818;2023-06-19T07:56:24;21.00;1.80
1455;DHT22;721;48.168;12.818;2023-06-19T07:58:52;21.10;1.00
1455;DHT22;721;48.168;12.818;2023-06-19T08:01:19;21.20;1.00
1455;DHT22;721;48.168;12.818;2023-06-19T08:03:46;21.30;1.00
1455;DHT22;721;48.168;12.818;2023-06-19T08:06:13;21.40;1.70
1455;DHT22;721;48.168;12.818;2023-06-19T08:08:40;21.50;1.80
1455;DHT22;721;48.168;12.818;2023-06-19T08:11:06;21.60;1.00
1455;DHT22;721;48.168;12.818;2023-06-19T08:13:33;21.70;1.00
1455;DHT22;721;48.168;12.818;2023-06-19T08:16:02;21.80;1.00
1455;DHT22;721;48.168;12.818;2023-06-19T08:18:28;21.80;1.00
1455;DHT22;721;48.168;12.818;2023-06-19T08:20:55;22.00;1.00
1455;DHT22;721;48.168;12.818;2023-06-19T08:23:22;21.90;1.00
1455;DHT22;721;48.168;12.818;2023-06-19T08:25:49;22.10;1.00
1455;DHT22;721;48.168;12.818;2023-06-19T08:28:16;22.20;1.00
1455;DHT22;721;48.168;12.818;2023-06-19T08:30:44;22.40;1.00
1455;DHT22;721;48.168;12.818;2023-06-19T08:33:13;22.60;1.00
1455;DHT22;721;48.168;12.818;2023-06-19T08:35:40;22.70;1.00
1455;DHT22;721;48.168;12.818;2023-06-19T08:38:07;22.80;1.00
1455;DHT22;721;48.168;12.818;2023-06-19T08:40:33;23.00;1.00
1455;DHT22;721;48.168;12.818;2023-06-19T08:43:00;23.10;1.00
1455;DHT22;721;48.168;12.818;2023-06-19T08:45:27;23.30;1.00
1455;DHT22;721;48.168;12.818;2023-06-19T08:47:58;23.30;1.00
1455;DHT22;721;48.168;12.818;2023-06-19T08:50:26;23.40;1.00
1455;DHT22;721;48.168;12.818;2023-06-19T08:52:55;23.50;1.00
1455;DHT22;721;48.168;12.818;2023-06-19T08:55:21;23.60;1.00
1455;DHT22;721;48.168;12.818;2023-06-19T08:57:49;23.60;1.00
1455;DHT22;721;48.168;12.818;2023-06-19T09:00:23;23.60;1.00
1455;DHT22;721;48.168;12.818;2023-06-19T09:02:51;23.80;1.00
1455;DHT22;721;48.168;12.818;2023-06-19T09:05:19;23.80;1.00
1455;DHT22;721;48.168;12.818;2023-06-19T09:07:56;23.80;1.00
1455;DHT22;721;48.168;12.818;2023-06-19T09:10:26;23.90;1.00
1455;DHT22;721;48.168;12.818;2023-06-19T09:12:57;24.00;1.00
1455;DHT22;721;48.168;12.818;2023-06-19T09:15:28;23.90;1.00
1455;DHT22;721;48.168;12.818;2023-06-19T09:18:05;24.00;1.00
1455;DHT22;721;48.168;12.818;2023-06-19T09:20:33;24.10;1.00
1455;DHT22;721;48.168;12.818;2023-06-19T09:23:03;24.10;1.00
1455;DHT22;721;48.168;12.818;2023-06-19T09:25:29;24.20;1.00
1455;DHT22;721;48.168;12.818;2023-06-19T09:27:57;24.10;1.00
1455;DHT22;721;48.168;12.818;2023-06-19T09:30:24;24.10;1.00
1455;DHT22;721;48.168;12.818;2023-06-19T09:32:51;24.20;1.00
1455;DHT22;721;48.168;12.818;2023-06-19T09:35:18;24.30;1.00
1455;DHT22;721;48.168;12.818;2023-06-19T09:37:46;24.40;1.00
1455;DHT22;721;48.168;12.818;2023-06-19T09:40:15;24.60;1.00
1455;DHT22;721;48.168;12.818;2023-06-19T09:42:42;24.80;1.00
1455;DHT22;721;48.168;12.818;2023-06-19T09:45:12;25.00;1.00
1455;DHT22;721;48.168;12.818;2023-06-19T09:47:43;25.20;1.00
1455;DHT22;721;48.168;12.818;2023-06-19T09:50:12;25.40;1.00
1455;DHT22;721;48.168;12.818;2023-06-19T09:52:40;25.60;1.00
1455;DHT22;721;48.168;12.818;2023-06-19T09:55:08;25.50;1.00
1455;DHT22;721;48.168;12.818;2023-06-19T09:57:40;25.50;1.00
1455;DHT22;721;48.168;12.818;2023-06-19T10:00:10;25.60;1.00
1455;DHT22;721;48.168;12.818;2023-06-19T10:02:40;25.80;1.00
1455;DHT22;721;48.168;12.818;2023-06-19T10:05:07;26.00;1.00
1455;DHT22;721;48.168;12.818;2023-06-19T10:07:38;26.20;1.00
1455;DHT22;721;48.168;12.818;2023-06-19T10:10:09;26.30;1.00
1455;DHT22;721;48.168;12.818;2023-06-19T10:12:40;26.50;1.00
1455;DHT22;721;48.168;12.818;2023-06-19T10:15:12;26.80;1.00
1455;DHT22;721;48.168;12.818;2023-06-19T10:17:43;27.00;1.00
1455;DHT22;721;48.168;12.818;2023-06-19T10:20:24;27.20;1.00
1455;DHT22;721;48.168;12.818;2023-06-19T10:22:52;27.40;1.00
1455;DHT22;721;48.168;12.818;2023-06-19T10:25:22;27.60;1.00
1455;DHT22;721;48.168;12.818;2023-06-19T10:27:51;27.70;1.00
1455;DHT22;721;48.168;12.818;2023-06-19T10:30:18;27.80;1.00
1455;DHT22;721;48.168;12.818;2023-06-19T10:32:46;27.80;1.00
1455;DHT22;721;48.168;12.818;2023-06-19T10:35:13;27.90;1.00
1455;DHT22;721;48.168;12.818;2023-06-19T10:37:41;27.70;1.00
1455;DHT22;721;48.168;12.818;2023-06-19T10:40:08;27.40;1.00
1455;DHT22;721;48.168;12.818;2023-06-19T10:42:36;27.30;1.00
1455;DHT22;721;48.168;12.818;2023-06-19T10:45:07;27.30;1.00
1455;DHT22;721;48.168;12.818;2023-06-19T10:47:35;27.40;1.00
1455;DHT22;721;48.168;12.818;2023-06-19T10:50:02;27.30;1.00
1455;DHT22;721;48.168;12.818;2023-06-19T10:52:29;27.30;1.00
1455;DHT22;721;48.168;12.818;2023-06-19T10:54:57;27.30;1.00
1455;DHT22;721;48.168;12.818;2023-06-19T10:57:28;27.40;1.00
1455;DHT22;721;48.168;12.818;2023-06-19T10:59:55;27.70;1.00
1455;DHT22;721;48.168;12.818;2023-06-19T11:02:23;28.00;1.00
1455;DHT22;721;48.168;12.818;2023-06-19T11:04:52;28.00;1.00
1455;DHT22;721;48.168;12.818;2023-06-19T11:07:20;28.00;1.00
1455;DHT22;721;48.168;12.818;2023-06-19T11:09:46;28.20;1.00
1455;DHT22;721;48.168;12.818;2023-06-19T11:12:19;28.30;1.00
1455;DHT22;721;48.168;12.818;2023-06-19T11:14:46;28.50;1.00
1455;DHT22;721;48.168;12.818;2023-06-19T11:17:13;28.50;1.00
1455;DHT22;721;48.168;12.818;2023-06-19T11:19:42;28.20;1.00
1455;DHT22;721;48.168;12.818;2023-06-19T11:22:10;28.30;1.00
1455;DHT22;721;48.168;12.818;2023-06-19T11:24:42;28.50;1.00
1455;DHT22;721;48.168;12.818;2023-06-19T11:27:16;28.80;1.00
1455;DHT22;721;48.168;12.818;2023-06-19T11:29:43;29.00;1.00
1455;DHT22;721;48.168;12.818;2023-06-19T11:32:13;29.00;1.00
1455;DHT22;721;48.168;12.818;2023-06-19T11:34:42;29.10;1.00
1455;DHT22;721;48.168;12.818;2023-06-19T11:37:13;29.10;1.00
1455;DHT22;721;48.168;12.818;2023-06-19T11:39:40;29.10;1.00
1455;DHT22;721;48.168;12.818;2023-06-19T11:42:07;29.20;1.00
1455;DHT22;721;48.168;12.818;2023-06-19T11:44:34;29.10;1.00
1455;DHT22;721;48.168;12.818;2023-06-19T11:47:01;28.90;1.00
1455;DHT22;721;48.168;12.818;2023-06-19T11:49:34;29.20;1.00
1455;DHT22;721;48.168;12.818;2023-06-19T11:52:03;29.40;1.00
1455;DHT22;721;48.168;12.818;2023-06-19T11:54:30;29.60;1.00
1455;DHT22;721;48.168;12.818;2023-06-19T11:56:57;29.80;1.00
1455;DHT22;721;48.168;12.818;2023-06-19T11:59:24;29.90;1.00
1455;DHT22;721;48.168;12.818;2023-06-19T12:01:50;29.70;1.00
1455;DHT22;721;48.168;12.818;2023-06-19T12:04:17;29.60;1.00
1455;DHT22;721;48.168;12.818;2023-06-19T12:06:44;29.70;1.00
1455;DHT22;721;48.168;12.818;2023-06-19T12:09:12;29.80;1.00
1455;DHT22;721;48.168;12.818;2023-06-19T12:11:39;29.90;1.00
1455;DHT22;721;48.168;12.818;2023-06-19T12:14:06;29.80;1.00
1455;DHT22;721;48.168;12.818;2023-06-19T12:16:33;30.00;1.00
1455;DHT22;721;48.168;12.818;2023-06-19T12:19:00;30.00;1.00
1455;DHT22;721;48.168;12.818;2023-06-19T12:21:26;30.20;1.00
1455;DHT22;721;48.168;12.818;2023-06-19T12:23:53;30.50;1.00
1455;DHT22;721;48.168;12.818;2023-06-19T12:26:22;30.60;1.00
1455;DHT22;721;48.168;12.818;2023-06-19T12:28:50;30.70;1.00
1455;DHT22;721;48.168;12.818;2023-06-19T12:31:17;30.90;1.00
1455;DHT22;721;48.168;12.818;2023-06-19T12:33:44;31.00;1.00
1455;DHT22;721;48.168;12.818;2023-06-19T12:36:13;31.10;1.00
1455;DHT22;721;48.168;12.818;2023-06-19T12:38:41;30.90;1.00
1455;DHT22;721;48.168;12.818;2023-06-19T12:41:07;30.80;1.00
1455;DHT22;721;48.168;12.818;2023-06-19T12:43:36;30.70;1.00
1455;DHT22;721;48.168;12.818;2023-06-19T12:46:02;30.80;1.00
1455;DHT22;721;48.168;12.818;2023-06-19T12:48:29;30.80;1.00
1455;DHT22;721;48.168;12.818;2023-06-19T12:50:56;30.90;1.00
1455;DHT22;721;48.168;12.818;2023-06-19T12:53:23;30.90;1.00
1455;DHT22;721;48.168;12.818;2023-06-19T12:55:55;31.00;1.00
1455;DHT22;721;48.168;12.818;2023-06-19T12:58:22;31.20;1.00
1455;DHT22;721;48.168;12.818;2023-06-19T13:00:50;30.90;1.00
1455;DHT22;721;48.168;12.818;2023-06-19T13:03:17;30.70;1.00
1455;DHT22;721;48.168;12.818;2023-06-19T13:05:46;30.80;1.00
1455;DHT22;721;48.168;12.818;2023-06-19T13:08:13;30.90;1.00
1455;DHT22;721;48.168;12.818;2023-06-19T13:10:39;31.00;1.00
1455;DHT22;721;48.168;12.818;2023-06-19T13:13:07;31.00;1.00
1455;DHT22;721;48.168;12.818;2023-06-19T13:15:35;31.10;1.00
1455;DHT22;721;48.168;12.818;2023-06-19T13:18:04;31.40;1.00
1455;DHT22;721;48.168;12.818;2023-06-19T13:20:30;31.20;1.00
1455;DHT22;721;48.168;12.818;2023-06-19T13:22:57;31.20;1.00
1455;DHT22;721;48.168;12.818;2023-06-19T13:25:24;31.40;1.00
1455;DHT22;721;48.168;12.818;2023-06-19T13:27:51;31.50;1.00
1455;DHT22;721;48.168;12.818;2023-06-19T13:30:18;31.70;1.00
1455;DHT22;721;48.168;12.818;2023-06-19T13:32:45;32.00;1.00
1455;DHT22;721;48.168;12.818;2023-06-19T13:35:13;31.80;1.00
1455;DHT22;721;48.168;12.818;2023-06-19T13:37:39;32.00;1.00
1455;DHT22;721;48.168;12.818;2023-06-19T13:40:07;32.40;1.00
1455;DHT22;721;48.168;12.818;2023-06-19T13:42:34;32.50;1.00
1455;DHT22;721;48.168;12.818;2023-06-19T13:45:02;32.60;1.00
1455;DHT22;721;48.168;12.818;2023-06-19T13:47:28;32.70;1.00
1455;DHT22;721;48.168;12.818;2023-06-19T13:49:55;32.80;1.00
1455;DHT22;721;48.168;12.818;2023-06-19T13:52:24;32.90;1.00
1455;DHT22;721;48.168;12.818;2023-06-19T13:54:51;32.90;1.00
1455;DHT22;721;48.168;12.818;2023-06-19T13:57:18;33.10;1.00
1455;DHT22;721;48.168;12.818;2023-06-19T13:59:44;33.30;1.00
1455;DHT22;721;48.168;12.818;2023-06-19T14:02:12;33.20;1.00
1455;DHT22;721;48.168;12.818;2023-06-19T14:04:40;32.80;1.00
1455;DHT22;721;48.168;12.818;2023-06-19T14:07:07;32.60;1.00
1455;DHT22;721;48.168;12.818;2023-06-19T14:09:35;32.50;1.00
1455;DHT22;721;48.168;12.818;2023-06-19T14:12:03;32.60;1.00
1455;DHT22;721;48.168;12.818;2023-06-19T14:14:29;32.60;1.00
1455;DHT22;721;48.168;12.818;2023-06-19T14:16:56;32.70;1.00
1455;DHT22;721;48.168;12.818;2023-06-19T14:19:23;32.90;1.00
1455;DHT22;721;48.168;12.818;2023-06-19T14:21:51;33.00;1.00
1455;DHT22;721;48.168;12.818;2023-06-19T14:24:18;33.20;1.00
1455;DHT22;721;48.168;12.818;2023-06-19T14:26:46;33.20;1.00
1455;DHT22;721;48.168;12.818;2023-06-19T14:29:13;33.10;1.00
1455;DHT22;721;48.168;12.818;2023-06-19T14:31:41;32.80;1.00
1455;DHT22;721;48.168;12.818;2023-06-19T14:34:08;32.90;1.00
1455;DHT22;721;48.168;12.818;2023-06-19T14:36:37;33.00;1.00
1455;DHT22;721;48.168;12.818;2023-06-19T14:39:04;33.00;1.00
1455;DHT22;721;48.168;12.818;2023-06-19T14:41:31;33.20;1.00
1455;DHT22;721;48.168;12.818;2023-06-19T14:43:59;33.20;1.00
1455;DHT22;721;48.168;12.818;2023-06-19T14:46:26;33.40;1.00
1455;DHT22;721;48.168;12.818;2023-06-19T14:48:53;33.80;1.00
1455;DHT22;721;48.168;12.818;2023-06-19T14:51:20;33.90;1.00
1455;DHT22;721;48.168;12.818;2023-06-19T14:53:46;33.90;1.00
1455;DHT22;721;48.168;12.818;2023-06-19T14:56:13;34.20;1.00
1455;DHT22;721;48.168;12.818;2023-06-19T14:58:40;34.30;1.00
1455;DHT22;721;48.168;12.818;2023-06-19T15:01:09;34.30;1.00
1455;DHT22;721;48.168;12.818;2023-06-19T15:03:36;34.10;1.00
1455;DHT22;721;48.168;12.818;2023-06-19T15:06:03;34.30;1.00
1455;DHT22;721;48.168;12.818;2023-06-19T15:08:30;34.20;1.00
1455;DHT22;721;48.168;12.818;2023-06-19T15:10:57;34.00;1.00
1455;DHT22;721;48.168;12.818;2023-06-19T15:13:24;34.40;1.00
1455;DHT22;721;48.168;12.818;2023-06-19T15:15:51;34.60;1.00
1455;DHT22;721;48.168;12.818;2023-06-19T15:18:19;34.80;1.00
1455;DHT22;721;48.168;12.818;2023-06-19T15:20:46;34.80;1.00
1455;DHT22;721;48.168;12.818;2023-06-19T15:23:13;34.70;1.00
1455;DHT22;721;48.168;12.818;2023-06-19T15:25:40;35.00;1.00
1455;DHT22;721;48.168;12.818;2023-06-19T15:28:06;35.00;1.00
1455;DHT22;721;48.168;12.818;2023-06-19T15:30:33;35.00;1.00
1455;DHT22;721;48.168;12.818;2023-06-19T15:33:00;35.20;1.00
1455;DHT22;721;48.168;12.818;2023-06-19T15:35:29;34.90;1.00
1455;DHT22;721;48.168;12.818;2023-06-19T15:37:55;35.10;1.00
1455;DHT22;721;48.168;12.818;2023-06-19T15:40:23;35.20;1.00
1455;DHT22;721;48.168;12.818;2023-06-19T15:42:50;35.40;1.00
1455;DHT22;721;48.168;12.818;2023-06-19T15:45:17;35.40;1.00
1455;DHT22;721;48.168;12.818;2023-06-19T15:47:44;35.30;1.00
1455;DHT22;721;48.168;12.818;2023-06-19T15:50:11;35.00;1.00
1455;DHT22;721;48.168;12.818;2023-06-19T15:52:39;34.80;1.00
1455;DHT22;721;48.168;12.818;2023-06-19T15:55:06;34.80;1.00
1455;DHT22;721;48.168;12.818;2023-06-19T15:57:33;34.80;1.00
1455;DHT22;721;48.168;12.818;2023-06-19T16:00:01;34.80;1.00
1455;DHT22;721;48.168;12.818;2023-06-19T16:02:30;34.90;1.00
1455;DHT22;721;48.168;12.818;2023-06-19T16:04:57;35.00;1.00
1455;DHT22;721;48.168;12.818;2023-06-19T16:07:24;34.90;1.00
1455;DHT22;721;48.168;12.818;2023-06-19T16:09:52;35.00;1.00
1455;DHT22;721;48.168;12.818;2023-06-19T16:12:19;34.80;1.00
1455;DHT22;721;48.168;12.818;2023-06-19T16:14:46;34.60;1.00
1455;DHT22;721;48.168;12.818;2023-06-19T16:17:12;34.70;1.00
1455;DHT22;721;48.168;12.818;2023-06-19T16:19:39;35.00;1.00